KAEX/AEX METAR and TAF weather

Enter ICAO airport designator
Station Type Date Time Source
KAEX METAR 2018/01/21 12:17 UTC NOAA

KAEX 211217Z 12008KT 4SM BR BKN003 OVC008 13/13 A3008 RMK AO2 T01280128 $


Station Type Date Time Source
KAEX Decoded METAR 2018/01/21 12:17 UTC NOAA

ALEXANDRIA INTERNATIONAL AIRPORT, LA, United States (KAEX) 31-33N 092-56W 27M
Jan 21, 2018 - 07:17 AM EST / 2018.01.21 1217 UTC
Wind: from the ESE (120 degrees) at 9 MPH (8 KT):0
Visibility: 4 mile(s):0
Sky conditions: overcast
Weather: mist
Temperature: 55.0 F (12.8 C)
Dew Point: 55.0 F (12.8 C)
Relative Humidity: 100%
Pressure (altimeter): 30.08 in. Hg (1018 hPa)
ob: KAEX 211217Z 12008KT 4SM BR BKN003 OVC008 13/13 A3008 RMK AO2 T01280128
cycle: 12

Station Type Date Time Source
KAEX TAF 2018/01/21 12:34 UTC NOAA

TAF KAEX 211131Z 2112/2212 12008KT 5SM BR BKN005 OVC025
TEMPO 2112/2115 2SM BR BKN003 OVC007
FM211600 15012KT P6SM OVC015
FM211900 16013G20KT P6SM SCT018 OVC025
FM220000 15012KT P6SM VCSH OVC015
FM220600 17012G20KT 4SM BR VCSH OVC015 PROB30 2209/2212 -SHRA OVC007


Example: see airport list